»·PEaware :: N30069 KVGT-KIFP

N30069 :: KVGT-KIFP

FLIGHT INFORMATION

Flight Status: Arrived
Operator: Privately registered:
United States
More flights under this callsign
Pilot: Nicholas J. (33481)
Aircraft: BEECH AIRCRAFT BONANZA
(BE36)
More flights by this aircraft type
Origin: KVGT North Las Vegas
United States
Destination: KIFP Laughlin/Bullhead Intl
United States
More flights between these airports :: More routes between these airports
Route: NOTWN5 LAS LAS BLD V237 LYNSY
File this flight plan on PilotEdge
Remarks:
Altitude:
(Current/Filed)
11,000ft
Speed:
(Current/Filed)
130kts
Departed: 20-Dec-21 02:49 PM
Arrived: 20-Dec-21 03:30 PM
Distance/Time
Traveled:
71nm/0:41
Distance/Time
To Go:
Arrived

Flight Plot

Page will automatically refresh every two minutes.

Flight plan parsing failed; only flown route is shown


Map Options




Map Legend


Flown Route
Filed Route
Departure Airport
Arrival Airport
Navaid (VOR, NDB)
Fix

Horizontal Profiles

Position Reports

Time Latitude Longitude Heading Altitude Ground
Speed
20-Dec-21 14:26 36.205225 -115.192328 44 2168ft 0kts
20-Dec-21 14:27 36.205225 -115.192328 44 2168ft 0kts
20-Dec-21 14:28 36.205225 -115.192328 44 2168ft 0kts
20-Dec-21 14:29 36.205225 -115.192328 44 2168ft 0kts
20-Dec-21 14:30 36.205226 -115.192328 44 2168ft 0kts
20-Dec-21 14:31 36.205226 -115.192327 44 2168ft 0kts
20-Dec-21 14:32 36.205226 -115.192327 44 2168ft 0kts
20-Dec-21 14:33 36.205226 -115.192327 44 2168ft 0kts
20-Dec-21 14:34 36.205226 -115.192327 44 2168ft 0kts
20-Dec-21 14:35 36.205226 -115.192327 44 2168ft 0kts
20-Dec-21 14:36 36.205226 -115.192326 44 2168ft 0kts
20-Dec-21 14:37 36.205227 -115.192326 44 2168ft 0kts
20-Dec-21 14:38 36.205227 -115.192326 44 2168ft 0kts
20-Dec-21 14:39 36.205227 -115.192326 44 2168ft 0kts
20-Dec-21 14:40 36.205227 -115.192326 44 2168ft 0kts
20-Dec-21 14:41 36.205227 -115.192325 44 2168ft 0kts
20-Dec-21 14:42 36.205431 -115.192326 308 2168ft 10kts
20-Dec-21 14:43 36.207673 -115.194994 315 2182ft 13kts
20-Dec-21 14:44 36.210525 -115.198594 311 2194ft 16kts
20-Dec-21 14:45 36.212675 -115.202331 271 2203ft 13kts
20-Dec-21 14:46 36.213872 -115.203343 1 2208ft 14kts
20-Dec-21 14:47 36.214171 -115.203201 35 2209ft 0kts
20-Dec-21 14:48 36.201793 -115.188110 162 2514ft 124kts
20-Dec-21 14:49 36.190443 -115.217612 261 4095ft 104kts
20-Dec-21 14:50 36.200634 -115.252971 319 4713ft 137kts
20-Dec-21 14:51 36.237024 -115.282017 327 4704ft 165kts
20-Dec-21 14:52 36.261839 -115.269736 115 5713ft 113kts
20-Dec-21 14:53 36.237692 -115.249876 159 6671ft 111kts
20-Dec-21 14:54 36.209218 -115.233900 156 7662ft 113kts
20-Dec-21 14:55 36.180367 -115.217376 156 8589ft 115kts
20-Dec-21 14:56 36.151101 -115.200602 155 9649ft 116kts
20-Dec-21 14:57 36.120464 -115.183104 156 10648ft 144kts
20-Dec-21 14:58 36.078501 -115.154868 122 10635ft 185kts
20-Dec-21 14:59 36.061436 -115.094886 109 10640ft 186kts
20-Dec-21 15:00 36.044299 -115.034424 109 10639ft 186kts
20-Dec-21 15:01 36.027177 -114.973964 109 10640ft 186kts
20-Dec-21 15:02 36.010052 -114.913652 109 10641ft 186kts
20-Dec-21 15:03 35.985447 -114.859960 159 10631ft 184kts
20-Dec-21 15:04 35.935946 -114.844380 166 10642ft 184kts
20-Dec-21 15:05 35.886228 -114.828363 165 10641ft 185kts
20-Dec-21 15:06 35.836406 -114.812374 165 10641ft 185kts
20-Dec-21 15:07 35.786464 -114.796378 166 10641ft 185kts
20-Dec-21 15:08 35.736544 -114.780410 166 10637ft 185kts
20-Dec-21 15:09 35.686725 -114.764505 166 10630ft 185kts
20-Dec-21 15:10 35.636798 -114.749027 166 10623ft 185kts
20-Dec-21 15:11 35.586714 -114.733952 166 10624ft 185kts
20-Dec-21 15:12 35.536736 -114.718952 166 10624ft 185kts
20-Dec-21 15:13 35.487018 -114.704058 166 10685ft 184kts
20-Dec-21 15:14 35.436925 -114.689062 166 10688ft 185kts
20-Dec-21 15:15 35.386733 -114.674048 166 10686ft 185kts
20-Dec-21 15:16 35.336866 -114.659160 166 10685ft 183kts
20-Dec-21 15:17 35.287058 -114.645112 170 10489ft 192kts
20-Dec-21 15:18 35.234005 -114.633874 170 9485ft 181kts
20-Dec-21 15:19 35.186229 -114.623578 170 8460ft 169kts
20-Dec-21 15:20 35.140172 -114.613569 170 7729ft 170kts
20-Dec-21 15:21 35.093288 -114.603425 170 7732ft 171kts
20-Dec-21 15:22 35.046690 -114.593354 170 7189ft 163kts
20-Dec-21 15:23 35.003758 -114.581482 138 6159ft 157kts
20-Dec-21 15:24 35.014514 -114.545830 347 5735ft 114kts
20-Dec-21 15:25 35.046751 -114.551194 354 5173ft 146kts
20-Dec-21 15:26 35.080336 -114.553729 355 3307ft 103kts
20-Dec-21 15:27 35.108215 -114.555801 355 1430ft 99kts
20-Dec-21 15:28 35.133242 -114.557821 354 964ft 88kts
20-Dec-21 15:29 35.151221 -114.558746 56 682ft 24kts
20-Dec-21 15:30 35.152482 -114.557831 354 677ft 28kts
20-Dec-21 15:31 35.156504 -114.556361 43 663ft 0kts

Navigation Log

Ident Type
Flight plan parsing failed, navigation log unavailable